Home > Products > Valid Products > TAF

000
FTUS42 KTBW 210800 AAA
TAFTPA
TAF AMD
KTPA 210857Z 2109/2206 VRB04KT P6SM OVC200
     FM211700 25007KT P6SM FEW040 SCT100 BKN250
     FM220000 VRB04KT P6SM BKN250=



000
FTUS42 KTBW 210500
TAFRSW
TAF
KRSW 210540Z 2106/2206 VRB03KT P6SM VCSH SCT060 BKN250
     FM211600 19005KT P6SM VCTS SCT025CB BKN035
     FM212100 24006KT P6SM SCT025 BKN100
     FM220000 VRB03KT P6SM BKN100 OVC200=



000
FTUS42 KTBW 210500
TAFPIE
TAF
KPIE 210540Z 2106/2206 VRB04KT P6SM FEW060 BKN250
     FM212000 32007KT P6SM FEW040 SCT100 BKN250
     FM220000 VRB04KT P6SM BKN250=



000
FTUS42 KTBW 210500
TAFFMY
TAF
KFMY 210540Z 2106/2206 VRB03KT P6SM VCSH SCT060 BKN250
     FM211600 19005KT P6SM VCTS SCT025CB BKN035
     FM212100 24006KT P6SM SCT025 BKN100
     FM220000 VRB03KT P6SM BKN100 OVC200=



000
FTUS42 KTBW 210500
TAFTPA
TAF
KTPA 210540Z 2106/2206 VRB04KT P6SM FEW060 BKN250
     FM211700 25007KT P6SM FEW040 SCT100 BKN250
     FM220000 VRB04KT P6SM BKN250=



000
FTUS42 KTBW 210500
TAFSRQ
TAF
KSRQ 210540Z 2106/2206 VRB04KT P6SM SCT060 BKN250
     FM211800 26007KT P6SM FEW040 SCT100 BKN250
     FM220000 VRB03KT P6SM FEW100 BKN250=



000
FTUS42 KTBW 210300 AAA
TAFTPA
TAF AMD
KTPA 210314Z 2103/2124 VRB03KT P6SM SCT060 BKN250
     FM211600 24005KT P6SM FEW040 SCT100 BKN250
     FM211900 27006KT P6SM SCT050 BKN100=



000
FTUS42 KTBW 210300 AAA
TAFTPA
TAF AMD
KTPA 210314Z 2103/2124 VRB03KT P6SM SCT060 BKN250
     FM211600 24005KT P6SM FEW040 SCT100 BKN250
     FM211900 27006KT P6SM SCT050 BKN100=



000
FTUS42 KTBW 202300
TAFPIE
TAF
KPIE 202335Z 2100/2124 VRB03KT P6SM SCT060 BKN250
     FM211000 VRB03KT P6SM SCT100 BKN250
     FM211600 03005KT P6SM FEW040 SCT100 BKN250
     FM211900 31006KT P6SM SCT050 BKN100=



000
FTUS42 KTBW 202300
TAFSRQ
TAF
KSRQ 202335Z 2100/2124 VRB03KT P6SM SCT060 BKN250
     FM210800 VRB03KT P6SM SCT100 BKN250
     FM211600 25006KT P6SM FEW040 BKN100
     FM211900 27007KT P6SM BKN050=



000
FTUS42 KTBW 202300
TAFFMY
TAF
KFMY 202335Z 2100/2124 VRB03KT P6SM BKN060
     FM210600 VRB03KT P6SM VCSH BKN050
     FM211400 14004KT P6SM VCSH BKN050
     FM211800 22006KT P6SM VCTS SCT030CB BKN050=



000
FTUS42 KTBW 202300
TAFTPA
TAF
KTPA 202335Z 2100/2124 VRB03KT P6SM SCT060 BKN250
     FM211000 VRB03KT P6SM SCT100 BKN250
     FM211600 24005KT P6SM FEW040 SCT100 BKN250
     FM211900 27006KT P6SM SCT050 BKN100=



000
FTUS42 KTBW 202300
TAFRSW
TAF
KRSW 202335Z 2100/2124 VRB03KT P6SM BKN060
     FM210600 VRB03KT P6SM VCSH BKN050
     FM211400 14004KT P6SM VCSH BKN050
     FM211800 22006KT P6SM VCTS SCT030CB BKN050=



000
FTUS42 KTBW 202100 AAA
TAFTPA
TAF AMD
KTPA 202103Z 2021/2118 28006KT P6SM FEW050 BKN250
     FM210100 VRB04KT P6SM FEW040 BKN250=



000
FTUS42 KTBW 201900 AAA
TAFRSW
TAF AMD
KRSW 201918Z 2019/2118 13005KT P6SM SCT050
     FM202100 21006KT P6SM BKN060
     FM210100 VRB03KT P6SM BKN050
     FM211400 VRB04KT P6SM VCSH BKN040 BKN150=



000
FTUS42 KTBW 201900 AAA
TAFFMY
TAF AMD
KFMY 201918Z 2019/2118 13005KT P6SM SCT050
     FM202100 23006KT P6SM BKN060
     FM210100 VRB03KT P6SM BKN050
     FM211400 VRB04KT P6SM VCSH BKN040 BKN150=



000
FTUS42 KTBW 201700
TAFPIE
TAF
KPIE 201726Z 2018/2118 06006KT P6SM FEW040
     FM202100 30006KT P6SM FEW045 FEW250
     FM210100 VRB04KT P6SM FEW040 SCT250=



000
FTUS42 KTBW 201700
TAFFMY
TAF
KFMY 201726Z 2018/2118 13006KT P6SM FEW040 FEW250
     FM202100 23006KT P6SM SCT045
     FM210100 VRB03KT P6SM BKN060
     FM211400 VRB04KT P6SM VCSH BKN040 BKN150=



000
FTUS42 KTBW 201700
TAFTPA
TAF
KTPA 201726Z 2018/2118 20006KT P6SM FEW045
     FM202100 29006KT P6SM FEW050 FEW250
     FM210100 VRB04KT P6SM FEW040 SCT250=



000
FTUS42 KTBW 201700
TAFSRQ
TAF
KSRQ 201726Z 2018/2118 14007KT P6SM FEW040
     FM202000 28006KT P6SM FEW045 FEW250
     FM210100 VRB03KT P6SM FEW040 SCT250=



000
FTUS42 KTBW 201700
TAFRSW
TAF
KRSW 201726Z 2018/2118 13006KT P6SM FEW040 FEW250
     FM202100 21006KT P6SM SCT045
     FM210100 VRB03KT P6SM BKN060
     FM211400 VRB04KT P6SM VCSH BKN040 BKN150=



000
FTUS42 KTBW 201500 AAA
TAFTPA
TAF AMD
KTPA 201503Z 2015/2112 13006KT P6SM SKC
     FM201800 20007KT P6SM FEW030 FEW250
     FM202200 29006KT P6SM FEW045 FEW250
     FM210100 VRB03KT P6SM SCT250=



000
FTUS42 KTBW 201100
TAFTPA
TAF
KTPA 201128Z 2012/2112 07005KT P6SM FEW250
     FM201500 14007KT P6SM FEW025 SCT250
     FM201900 24007KT P6SM SCT040 SCT250
     FM210000 VRB03KT P6SM SCT250=



000
FTUS42 KTBW 201100
TAFSRQ
TAF
KSRQ 201128Z 2012/2112 09007KT P6SM FEW250
     FM201500 14007KT P6SM FEW025 FEW250
     FM201800 23007KT P6SM SCT040 SCT250
     FM202200 28006KT P6SM SCT045 SCT250
     FM210100 VRB03KT P6SM SCT250=



000
FTUS42 KTBW 201100
TAFRSW
TAF
KRSW 201128Z 2012/2112 07005KT P6SM FEW250
     FM201500 13008KT P6SM FEW025 FEW250
     FM201800 18007KT P6SM SCT035 SCT250
     FM202100 22006KT P6SM SCT045 SCT250
     FM210100 VRB03KT P6SM SCT250=



000
FTUS42 KTBW 201100
TAFPIE
TAF
KPIE 201128Z 2012/2112 09006KT P6SM FEW250
     FM201500 12007KT P6SM FEW025 SCT250
     FM201900 28007KT P6SM SCT040 SCT250
     FM210000 VRB04KT P6SM SCT250=



000
FTUS42 KTBW 201100
TAFFMY
TAF
KFMY 201128Z 2012/2112 08005KT P6SM FEW250
     FM201500 12007KT P6SM FEW025 FEW250
     FM201900 18007KT P6SM SCT035 SCT250
     FM202100 23006KT P6SM SCT045 SCT250
     FM210100 VRB03KT P6SM SCT250=



000
FTUS42 KTBW 200800 AAA
TAFTPA
TAF AMD
KTPA 200855Z 2009/2106 08005KT P6SM FEW250
     FM201500 16007KT P6SM SCT250
     FM202000 23007KT P6SM SCT040 SCT250
     FM210000 VRB04KT P6SM SCT250=



000
FTUS42 KTBW 200500
TAFFMY
TAF
KFMY 200534Z 2006/2106 08003KT P6SM FEW250
     FM201600 11006KT P6SM FEW250
     FM202100 22006KT P6SM SCT040 SCT250
     FM210000 VRB03KT P6SM SCT250=



000
FTUS42 KTBW 200500
TAFPIE
TAF
KPIE 200534Z 2006/2106 09005KT P6SM FEW040 SCT250
     FM201500 12005KT P6SM SCT250
     FM202000 26006KT P6SM SCT040 SCT250
     FM210000 VRB03KT P6SM SCT250=



000
FTUS42 KTBW 200500
TAFTPA
TAF
KTPA 200534Z 2006/2106 08005KT P6SM FEW040 SCT250
     FM201500 16007KT P6SM SCT250
     FM202000 23007KT P6SM SCT040 SCT250
     FM210000 VRB04KT P6SM SCT250=



000
FTUS42 KTBW 200500
TAFSRQ
TAF
KSRQ 200534Z 2006/2106 08004KT P6SM FEW250
     FM201400 10007KT P6SM FEW250
     FM201800 22007KT P6SM SCT040 SCT250
     FM202200 30005KT P6SM SCT040 SCT250
     FM210200 VRB02KT P6SM SCT250=



000
FTUS42 KTBW 200500
TAFRSW
TAF
KRSW 200534Z 2006/2106 07004KT P6SM FEW250
     FM201600 14006KT P6SM FEW250
     FM202100 22006KT P6SM SCT040 SCT250
     FM210000 VRB03KT P6SM SCT250=



000
FTUS42 KTBW 200200 AAA
TAFTPA
TAF AMD
KTPA 200259Z 2003/2024 VRB03KT P6SM FEW040 SCT250
     FM201500 15004KT P6SM SCT250
     FM202000 23004KT P6SM SCT250=



000
FTUS42 KTBW 192300
TAFTPA
TAF
KTPA 192333Z 2000/2024 03004KT P6SM SCT040
     FM200200 VRB03KT P6SM FEW040 SCT250
     FM201500 15004KT P6SM SCT250
     FM202000 23004KT P6SM SCT250=



000
FTUS42 KTBW 192300
TAFPIE
TAF
KPIE 192333Z 2000/2024 32006KT P6SM SCT040
     FM200200 07005KT P6SM FEW040 SCT200
     FM201500 12005KT P6SM FEW250
     FM202000 25004KT P6SM FEW250=



000
FTUS42 KTBW 192300
TAFSRQ
TAF
KSRQ 192333Z 2000/2024 04005KT P6SM FEW040 FEW250
     FM200500 07004KT P6SM FEW250
     FM201400 09007KT P6SM FEW250
     FM201800 17007KT P6SM SCT250
     FM202200 27005KT P6SM SCT250=



000
FTUS42 KTBW 192300
TAFRSW
TAF
KRSW 192333Z 2000/2024 05004KT P6SM FEW250
     FM200400 08004KT P6SM FEW250
     FM201600 14006KT P6SM FEW250
     FM202100 17006KT P6SM SCT250=



000
FTUS42 KTBW 192300
TAFFMY
TAF
KFMY 192333Z 2000/2024 05004KT P6SM FEW250
     FM200400 09003KT P6SM FEW250
     FM201600 11006KT P6SM FEW250
     FM202100 17005KT P6SM SCT250=



000
FTUS42 KTBW 192300
TAFRSW
TAF
KRSW 192333Z 2000/2024 05004KT P6SM FEW250
     FM200400 08004KT P6SM FEW250
     FM201600 14006KT P6SM FEW250
     FM202100 17006KT P6SM SCT250=



000
FTUS42 KTBW 192300
TAFFMY
TAF
KFMY 192333Z 2000/2024 05004KT P6SM FEW250
     FM200400 09003KT P6SM FEW250
     FM201600 11006KT P6SM FEW250
     FM202100 17005KT P6SM SCT250=



000
FTUS42 KTBW 192300
TAFPIE
TAF
KPIE 192333Z 2000/2024 32006KT P6SM SCT040
     FM200200 07005KT P6SM FEW040 SCT200
     FM201500 12005KT P6SM FEW250
     FM202000 25004KT P6SM FEW250=



000
FTUS42 KTBW 192300
TAFSRQ
TAF
KSRQ 192333Z 2000/2024 04005KT P6SM FEW040 FEW250
     FM200500 07004KT P6SM FEW250
     FM201400 09007KT P6SM FEW250
     FM201800 17007KT P6SM SCT250
     FM202200 27005KT P6SM SCT250=



000
FTUS42 KTBW 192300
TAFTPA
TAF
KTPA 192333Z 2000/2024 03004KT P6SM SCT040
     FM200200 VRB03KT P6SM FEW040 SCT250
     FM201500 15004KT P6SM SCT250
     FM202000 23004KT P6SM SCT250=



000
FTUS42 KTBW 192000 AAA
TAFTPA
TAF AMD
KTPA 192057Z 1921/2018 VRB05KT P6SM SCT050
     FM200000 VRB03KT P6SM SCT250
     FM201500 09005KT P6SM FEW015=



000
FTUS42 KTBW 191700
TAFRSW
TAF
KRSW 191720Z 1918/2018 VRB04KT P6SM SCT250
     FM201600 13005KT P6SM FEW250=



000
FTUS42 KTBW 191700
TAFPIE
TAF
KPIE 191720Z 1918/2018 04005KT P6SM SCT250
     FM200100 07005KT P6SM SCT250
     FM201500 10005KT P6SM SCT250=



000
FTUS42 KTBW 191700
TAFSRQ
TAF
KSRQ 191720Z 1918/2018 04006KT P6SM SCT040
     FM200000 VRB03KT P6SM SCT250
     FM201500 10006KT P6SM SCT250=



000
FTUS42 KTBW 191700
TAFTPA
TAF
KTPA 191720Z 1918/2018 03005KT P6SM SCT040
     FM200000 VRB03KT P6SM SCT250
     FM201500 09005KT P6SM FEW015=



000
FTUS42 KTBW 191700
TAFFMY
TAF
KFMY 191720Z 1918/2018 VRB04KT P6SM SCT250
     FM201600 13005KT P6SM FEW250=



000
FTUS42 KTBW 191500 AAA
TAFSRQ
TAF AMD
KSRQ 191553Z 1916/2012 02008KT P6SM BKN035
     FM191900 04008KT P6SM SCT035
     FM200200 08006KT P6SM SCT250=



000
FTUS42 KTBW 191500 AAA
TAFTPA
TAF AMD
KTPA 191502Z 1915/2012 04006KT P6SM FEW025
     FM192300 07004KT P6SM SCT250=



000
FTUS42 KTBW 191100
TAFSRQ
TAF
KSRQ 191120Z 1912/2012 VRB03KT P6SM SKC
     FM191500 05006KT P6SM FEW040
     FM200200 08006KT P6SM FEW040=



000
FTUS42 KTBW 191100
TAFTPA
TAF
KTPA 191120Z 1912/2012 00000KT P6SM SKC
     FM191500 05006KT P6SM FEW040=



000
FTUS42 KTBW 191100
TAFPIE
TAF
KPIE 191120Z 1912/2012 00000KT P6SM SKC
     FM191400 04006KT P6SM FEW040
     FM200200 07006KT P6SM FEW040=



000
FTUS42 KTBW 191100
TAFRSW
TAF
KRSW 191120Z 1912/2012 02004KT P6SM SKC
     FM191500 06006KT P6SM FEW250=



000
FTUS42 KTBW 191100
TAFFMY
TAF
KFMY 191120Z 1912/2012 05006KT P6SM FEW250=



000
FTUS42 KTBW 190800 AAA
TAFTPA
TAF AMD
KTPA 190855Z 1909/2006 00000KT P6SM SKC
     FM191500 04006KT P6SM FEW040=



000
FTUS42 KTBW 190500
TAFRSW
TAF
KRSW 190530Z 1906/2006 VRB03KT P6SM SKC
     FM191400 06005KT P6SM FEW040=



000
FTUS42 KTBW 190500
TAFTPA
TAF
KTPA 190530Z 1906/2006 00000KT P6SM SKC
     FM191500 04006KT P6SM FEW040=



000
FTUS42 KTBW 190500
TAFSRQ
TAF
KSRQ 190530Z 1906/2006 VRB03KT P6SM SKC
     FM191500 05006KT P6SM FEW040=



000
FTUS42 KTBW 190500
TAFPIE
TAF
KPIE 190530Z 1906/2006 VRB03KT P6SM SKC
     FM191400 04006KT P6SM SKC
     FM200200 07007KT P6SM FEW040=



000
FTUS42 KTBW 190500
TAFFMY
TAF
KFMY 190530Z 1906/2006 VRB03KT P6SM SKC
     FM191400 05006KT P6SM FEW040=



000
FTUS42 KTBW 190300 AAA
TAFTPA
TAF AMD
KTPA 190306Z 1903/1924 00000KT P6SM SKC
     FM191400 04004KT P6SM SKC
     FM192000 34006KT P6SM FEW050=



000
FTUS42 KTBW 182300
TAFTPA
TAF
KTPA 182331Z 1900/1924 00000KT P6SM SKC
     FM191400 04004KT P6SM SKC
     FM192000 34006KT P6SM FEW050=



000
FTUS42 KTBW 182300
TAFRSW
TAF
KRSW 182331Z 1900/1924 00000KT P6SM SKC
     FM191400 06005KT P6SM SKC
     FM192100 06007KT P6SM FEW050=



000
FTUS42 KTBW 182300
TAFPIE
TAF
KPIE 182331Z 1900/1924 00000KT P6SM SKC
     FM191400 04006KT P6SM SKC
     FM192000 36006KT P6SM FEW050=



000
FTUS42 KTBW 182300
TAFFMY
TAF
KFMY 182331Z 1900/1924 00000KT P6SM SKC
     FM191400 05005KT P6SM SKC
     FM192100 06007KT P6SM FEW050=



000
FTUS42 KTBW 182300
TAFSRQ
TAF
KSRQ 182331Z 1900/1924 00000KT P6SM SKC
     FM191400 05006KT P6SM SKC
     FM192100 01007KT P6SM FEW050=



000
FTUS42 KTBW 182100 AAA
TAFTPA
TAF AMD
KTPA 182106Z 1821/1918 27006KT P6SM FEW250
     FM190300 00000KT P6SM FEW250
     FM191600 05006KT P6SM FEW250=



000
FTUS42 KTBW 181700
TAFTPA
TAF
KTPA 181730Z 1818/1918 25006KT P6SM FEW250
     FM190300 00000KT P6SM FEW250
     FM191600 05006KT P6SM FEW250=



000
FTUS42 KTBW 181700
TAFPIE
TAF
KPIE 181730Z 1818/1918 33004KT P6SM FEW250
     FM181900 32008KT P6SM FEW250
     FM190000 VRB03KT P6SM FEW250=



000
FTUS42 KTBW 181700
TAFRSW
TAF
KRSW 181730Z 1818/1918 31004KT P6SM FEW250
     FM191400 05005KT P6SM FEW250=



000
FTUS42 KTBW 181700
TAFFMY
TAF
KFMY 181730Z 1818/1918 33005KT P6SM FEW250
     FM191400 05005KT P6SM FEW250=



000
FTUS42 KTBW 181700
TAFSRQ
TAF
KSRQ 181730Z 1818/1918 28008KT P6SM FEW250
     FM190000 31004KT P6SM FEW250
     FM191300 06004KT P6SM FEW250=



000
FTUS42 KTBW 181500 AAA
TAFTPA
TAF AMD
KTPA 181503Z 1815/1912 VRB02KT P6SM FEW040
     FM181800 27007KT P6SM FEW040
     FM190200 VRB02KT P6SM SKC=



000
FTUS42 KTBW 181500 AAA
TAFTPA
TAF AMD
KTPA 181503Z 1815/1912 VRB02KT P6SM FEW040
     FM181800 27007KT P6SM FEW040
     FM190200 VRB02KT P6SM SKC=



000
FTUS42 KTBW 181100
TAFPIE
TAF
KPIE 181129Z 1812/1912 VRB02KT P6SM SKC
     FM181800 32008KT P6SM SKC
     FM190200 VRB03KT P6SM SKC=



000
FTUS42 KTBW 181100
TAFTPA
TAF
KTPA 181129Z 1812/1912 VRB02KT P6SM SKC
     FM181800 27007KT P6SM SKC
     FM190200 VRB02KT P6SM SKC=



000
FTUS42 KTBW 181100
TAFRSW
TAF
KRSW 181129Z 1812/1912 05005KT P6SM SKC
     FM181800 32005KT P6SM SKC
     FM190300 VRB03KT P6SM SKC=



000
FTUS42 KTBW 181100
TAFTPA
TAF
KTPA 181129Z 1812/1912 VRB02KT P6SM SKC
     FM181800 27007KT P6SM SKC
     FM190200 VRB02KT P6SM SKC=



000
FTUS42 KTBW 181100
TAFPIE
TAF
KPIE 181129Z 1812/1912 VRB02KT P6SM SKC
     FM181800 32008KT P6SM SKC
     FM190200 VRB03KT P6SM SKC=



000
FTUS42 KTBW 181100
TAFSRQ
TAF
KSRQ 181129Z 1812/1912 VRB03KT P6SM SKC
     FM181800 30008KT P6SM SKC
     FM190200 VRB02KT P6SM SKC=



000
FTUS42 KTBW 181100
TAFFMY
TAF
KFMY 181129Z 1812/1912 04005KT P6SM SKC
     FM181800 32005KT P6SM SKC
     FM190300 VRB03KT P6SM SKC=



000
FTUS42 KTBW 181100
TAFSRQ
TAF
KSRQ 181129Z 1812/1912 VRB03KT P6SM SKC
     FM181800 30008KT P6SM SKC
     FM190200 VRB02KT P6SM SKC=



000
FTUS42 KTBW 181100
TAFRSW
TAF
KRSW 181129Z 1812/1912 05005KT P6SM SKC
     FM181800 32005KT P6SM SKC
     FM190300 VRB03KT P6SM SKC=



000
FTUS42 KTBW 181100
TAFFMY
TAF
KFMY 181129Z 1812/1912 04005KT P6SM SKC
     FM181800 32005KT P6SM SKC
     FM190300 VRB03KT P6SM SKC=



    US Dept of Commerce
    National Oceanic and Atmospheric Administration
    National Weather Service
    1325 East West Highway
    Silver Spring, MD 20910
    Page Author: NWS Internet Services Team
Disclaimer
Information Quality
Credits
Glossary
Privacy Policy
Freedom of Information Act (FOIA)
About Us
Career Opportunities